Latest Weather Observations for Dunalley

IDT60801

Issued at 7:33 pm EDT Wednesday 4 March 2015 (issued every 30 minutes, with the page automatically refreshed every 10 minutes)

About weather observations | Map of weather stations | Latest weather observations for TAS | Other Formats
Station Details ID: 094254 Name: DUNALLEY (STROUD POINT) Lat: -42.90 Lon: 147.79 Height: 12.43 m
Data from the previous 72 hours. | See also: Recent months at Dunalley
Date/Time
EDT
Temp
°C
App
Temp
°C
Dew
Point
Rel
Hum
%
Delta-T
°C
Wind Press
QNH
hPa
Press
MSL
hPa
Rain
since 9 am
mm
Dir
 
Spd
km/h
Gust
km/h
Spd
kts
Gust
kts
04/07:30pm 17.9 15.4 8.2 53 5.0 W 11 17 6 9 997.7 997.7 -
04/07:00pm 18.6 13.5 7.7 49 5.6 WNW 24 35 13 19 997.9 997.9 -
04/06:30pm 19.0 12.1 7.4 47 5.9 WNW 33 46 18 25 998.1 998.1 -
04/06:00pm 19.6 12.8 6.7 43 6.5 WNW 32 59 17 32 998.4 998.4 -
04/05:44pm 20.7 14.2 6.6 40 7.2 WNW 30 50 16 27 998.6 998.6 -
04/05:30pm 20.5 13.1 6.8 41 7.0 WNW 35 52 19 28 998.5 998.5 -
04/05:22pm 20.3 14.2 6.6 41 7.0 WNW 28 46 15 25 998.5 998.5 -
04/05:00pm 20.6 15.7 9.8 50 5.8 W 26 35 14 19 998.6 998.6 -
04/04:30pm 21.0 15.6 8.0 43 6.8 WNW 26 37 14 20 998.9 998.9 -
04/04:00pm 19.8 14.9 10.0 53 5.3 W 26 37 14 20 999.5 999.5 -
04/03:30pm 20.1 13.6 10.2 53 5.4 W 35 43 19 23 999.6 999.6 -
04/03:00pm 20.6 14.5 9.8 50 5.8 W 32 41 17 22 999.9 999.9 -
04/02:30pm 22.1 16.3 10.9 49 6.2 W 32 43 17 23 999.9 999.9 -
04/02:00pm 21.7 15.6 9.9 47 6.4 W 32 44 17 24 1000.0 1000.0 -
04/01:30pm 21.6 15.6 10.7 50 6.0 W 33 43 18 23 1000.3 1000.3 -
04/01:00pm 21.4 13.6 9.6 47 6.4 W 41 52 22 28 1000.5 1000.5 -
04/12:33pm 22.3 15.6 9.5 44 6.9 WNW 35 54 19 29 1001.0 1001.0 -
04/12:30pm 22.1 15.2 8.9 43 7.1 WNW 35 50 19 27 1001.0 1001.0 -
04/12:00pm 22.2 16.2 8.7 42 7.2 WNW 30 44 16 24 1001.5 1001.5 -
04/11:30am 21.5 14.9 8.4 43 6.9 WNW 33 43 18 23 1001.9 1001.9 0.0
04/11:00am 20.1 13.4 8.1 46 6.2 WNW 33 50 18 27 1002.3 1002.3 0.0
04/10:30am 18.1 12.3 7.8 51 5.2 WNW 28 43 15 23 1002.4 1002.4 0.0
04/10:02am 18.7 12.9 8.1 50 5.4 NW 28 46 15 25 1002.7 1002.7 0.0
04/10:00am 18.8 12.8 8.5 51 5.4 NW 30 46 16 25 1002.6 1002.6 0.0
04/09:57am 18.3 12.6 8.3 52 5.2 NW 28 48 15 26 1002.6 1002.6 0.0
04/09:30am 16.9 12.3 8.3 57 4.4 NW 22 35 12 19 1003.3 1003.3 0.0
04/09:00am 16.9 12.7 8.3 57 4.4 NW 20 33 11 18 1003.5 1003.5 0.0
04/08:30am 16.0 11.4 8.0 59 4.0 NW 22 37 12 20 1003.6 1003.6 0.0
04/08:00am 15.6 11.2 7.6 59 4.0 NW 20 33 11 18 1003.7 1003.7 0.0
04/07:30am 15.4 10.2 7.2 58 4.0 NW 24 33 13 18 1003.7 1003.7 0.0
04/07:00am 15.2 10.3 6.7 57 4.2 NW 22 35 12 19 1004.0 1004.0 0.0
04/06:30am 15.0 10.6 6.6 57 4.1 NW 19 32 10 17 1003.9 1003.9 0.0
04/06:00am 14.7 11.0 6.3 57 4.1 WNW 15 22 8 12 1004.3 1004.3 0.0
04/05:30am 14.4 9.8 6.3 58 3.9 NW 20 32 11 17 1004.4 1004.4 0.0
04/05:00am 14.7 9.7 6.3 57 4.1 NW 22 39 12 21 1004.8 1004.8 0.0
04/04:30am 14.3 9.2 6.2 58 3.9 NW 22 37 12 20 1004.9 1004.9 0.0
04/04:00am 13.9 10.0 5.3 56 4.0 WNW 15 22 8 12 1005.3 1005.3 0.0
04/03:30am 13.5 10.8 5.4 58 3.8 NW 9 39 5 21 1005.5 1005.5 0.0
04/03:00am 13.4 10.2 5.1 57 3.9 NW 11 17 6 9 1006.0 1006.0 0.0
04/02:30am 12.5 10.2 4.7 59 3.6 NW 6 9 3 5 1006.9 1006.9 0.0
04/02:00am 12.7 9.7 4.2 56 3.9 NW 9 17 5 9 1007.3 1007.3 0.0
04/01:30am 12.4 9.4 4.1 57 3.7 NW 9 15 5 8 1008.0 1008.0 0.0
04/01:00am 12.5 8.3 3.7 55 3.9 NW 15 20 8 11 1008.2 1008.2 0.0
04/12:30am 12.7 8.5 3.9 55 4.0 WNW 15 24 8 13 1008.7 1008.7 0.0
04/12:00am 13.3 7.0 3.9 53 4.3 WNW 26 39 14 21 1009.2 1009.2 0.0
 
Date/Time
EDT
Temp
°C
App
Temp
°C
Dew
Point
Rel
Hum
%
Delta-T
°C
Wind Press
QNH
hPa
Press
MSL
hPa
Rain
since 9 am
mm
Dir
 
Spd
km/h
Gust
km/h
Spd
kts
Gust
kts
03/11:30pm 13.6 8.6 4.5 54 4.2 WNW 20 35 11 19 1009.3 1009.3 0.0
03/11:00pm 14.1 10.4 9.5 74 2.4 W 19 30 10 16 1009.9 1009.9 0.0
03/10:30pm 14.3 11.9 11.3 82 1.6 WNW 15 22 8 12 1010.0 1010.0 0.0
03/10:00pm 14.1 11.9 10.9 81 1.7 NNW 13 20 7 11 1010.1 1010.1 0.0
03/09:30pm 14.0 12.3 11.3 84 1.4 N 11 15 6 8 1010.0 1010.0 0.0
03/09:00pm 14.9 12.4 12.2 84 1.5 NNE 17 20 9 11 1010.0 1010.0 0.0
03/08:30pm 15.3 11.8 12.2 82 1.7 NE 22 28 12 15 1010.0 1010.0 0.0
03/08:00pm 15.6 11.7 12.0 79 2.0 NE 24 32 13 17 1010.0 1010.0 0.0
03/07:30pm 15.9 11.1 11.7 76 2.3 NE 28 33 15 18 1010.3 1010.3 0.0
03/07:00pm 16.1 10.9 11.5 74 2.5 NE 30 37 16 20 1010.4 1010.4 0.0
03/06:30pm 16.3 11.1 11.5 73 2.6 NE 30 37 16 20 1010.6 1010.6 0.0
03/06:00pm 16.6 10.7 11.3 71 2.9 ENE 33 43 18 23 1010.6 1010.6 0.0
03/05:30pm 16.3 10.5 10.8 70 2.9 ENE 32 37 17 20 1011.0 1011.0 0.0
03/05:00pm 17.8 12.5 11.1 65 3.6 NE 30 35 16 19 1011.2 1011.2 0.0
03/04:30pm 18.6 14.1 10.2 58 4.5 NE 24 30 13 16 1011.3 1011.3 0.0
03/04:00pm 18.4 14.0 8.9 54 4.9 NE 22 28 12 15 1011.5 1011.5 0.0
03/03:30pm 18.1 14.9 10.0 59 4.3 S 17 24 9 13 1011.8 1011.8 0.0
03/03:00pm 19.1 16.9 6.2 43 6.4 SSW 7 11 4 6 1012.0 1012.0 0.0
03/02:30pm 18.4 15.9 4.9 41 6.5 SW 7 9 4 5 1012.5 1012.5 0.0
03/02:00pm 18.1 15.8 5.7 44 6.1 SW 7 13 4 7 1012.8 1012.8 0.0
03/01:30pm 16.9 13.8 5.5 47 5.5 SW 11 13 6 7 1013.2 1013.2 0.0
03/01:00pm 17.2 13.6 4.9 44 5.9 SW 13 17 7 9 1013.6 1013.6 0.0
03/12:30pm 17.9 13.6 7.0 49 5.4 SW 19 24 10 13 1014.1 1014.1 0.0
03/12:00pm 17.3 13.0 7.1 51 5.1 SW 19 24 10 13 1014.5 1014.5 0.0
03/11:30am 17.5 13.3 7.5 52 5.0 SW 19 24 10 13 1014.7 1014.7 0.0
03/11:00am 17.5 13.9 8.4 55 4.7 SW 17 22 9 12 1014.6 1014.6 0.0
03/10:30am 16.2 12.1 7.7 57 4.3 SW 19 24 10 13 1014.6 1014.6 0.0
03/10:00am 15.1 13.9 9.7 70 2.8 S 6 7 3 4 1014.6 1014.6 0.0
03/09:30am 14.7 13.3 9.5 71 2.7 S 7 9 4 5 1014.4 1014.4 0.0
03/09:00am 14.4 12.6 9.6 73 2.5 S 9 13 5 7 1014.3 1014.3 -
03/08:30am 14.2 12.5 9.8 75 2.3 S 9 13 5 7 1014.1 1014.1 -
03/08:00am 13.7 12.1 10.3 80 1.8 S 9 13 5 7 1014.1 1014.1 -
03/07:30am 13.2 11.0 10.7 85 1.3 S 13 19 7 10 1013.6 1013.6 -
03/07:00am 13.2 11.1 11.1 87 1.1 S 13 17 7 9 1013.2 1013.2 -
03/06:30am 13.0 12.1 11.2 89 0.9 S 7 11 4 6 1012.6 1012.6 -
03/06:00am 13.8 10.6 11.1 84 1.4 SW 19 22 10 12 1012.2 1012.2 -
03/05:30am 14.2 11.2 7.9 66 3.1 W 13 17 7 9 1011.7 1011.7 -
03/05:00am 14.0 10.7 6.6 61 3.6 WNW 13 22 7 12 1011.4 1011.4 -
03/04:30am 14.1 11.1 6.2 59 3.8 NW 11 20 6 11 1011.3 1011.3 -
03/04:00am 14.1 11.1 6.0 58 3.9 NW 11 20 6 11 1011.1 1011.1 -
03/03:30am 13.5 9.7 5.7 59 3.7 NNW 15 20 8 11 1011.1 1011.1 -
03/03:00am 12.6 9.5 5.5 62 3.3 NNW 11 17 6 9 1011.2 1011.2 -
03/02:30am 12.5 9.8 5.4 62 3.3 NNW 9 15 5 8 1011.4 1011.4 -
03/02:00am 12.3 9.5 5.2 62 3.3 NW 9 15 5 8 1011.5 1011.5 -
03/01:30am 12.4 9.6 5.1 61 3.4 NW 9 13 5 7 1011.9 1011.9 -
03/01:00am 12.8 9.2 5.2 60 3.5 NW 13 17 7 9 1012.3 1012.3 -
03/12:30am 13.9 10.6 6.3 60 3.6 WNW 13 22 7 12 1012.8 1012.8 0.0
03/12:00am 13.6 9.8 7.4 66 3.0 SW 17 24 9 13 1012.4 1012.4 0.0
 
Date/Time
EDT
Temp
°C
App
Temp
°C
Dew
Point
Rel
Hum
%
Delta-T
°C
Wind Press
QNH
hPa
Press
MSL
hPa
Rain
since 9 am
mm
Dir
 
Spd
km/h
Gust
km/h
Spd
kts
Gust
kts
02/11:30pm 13.1 11.8 10.1 82 1.5 S 7 15 4 8 1012.7 1012.7 0.0
02/11:00pm 14.5 13.1 10.9 79 1.9 S 9 13 5 7 1012.6 1012.6 0.0
02/10:30pm 14.8 12.3 11.0 78 2.0 S 15 20 8 11 1012.4 1012.4 0.0
02/10:00pm 14.7 13.1 11.5 81 1.7 SSW 11 19 6 10 1012.4 1012.4 0.0
02/09:30pm 15.0 11.8 12.0 82 1.6 SSW 20 26 11 14 1011.8 1011.8 0.0
02/09:00pm 15.6 13.7 12.9 84 1.5 W 15 19 8 10 1011.3 1011.3 0.0
02/08:30pm 15.2 14.1 12.0 81 1.7 NNW 9 9 5 5 1010.7 1010.7 0.0
02/08:00pm 16.3 15.3 12.3 77 2.2 NNW 9 11 5 6 1010.3 1010.3 0.0
02/07:30pm 18.7 15.5 5.2 41 6.5 NNW 11 17 6 9 1010.2 1010.2 0.0
02/07:00pm 18.9 15.5 5.7 42 6.5 N 13 24 7 13 1009.9 1009.9 0.0
02/06:30pm 19.3 15.3 5.0 39 6.9 N 15 24 8 13 1009.5 1009.5 0.0
02/06:00pm 18.4 15.8 11.9 66 3.6 NNE 17 26 9 14 1010.0 1010.0 0.0
02/05:30pm 18.2 14.6 14.3 78 2.2 NE 26 33 14 18 1010.2 1010.2 0.0
02/05:00pm 18.1 14.4 13.8 76 2.5 NNE 26 32 14 17 1010.7 1010.7 0.0
02/04:30pm 18.2 13.3 13.7 75 2.6 NE 32 39 17 21 1011.0 1011.0 0.0
02/04:00pm 18.2 12.1 13.1 72 2.9 NE 37 46 20 25 1011.3 1011.3 0.0
02/03:30pm 18.2 12.3 12.4 69 3.2 NE 35 44 19 24 1011.8 1011.8 0.0
02/03:00pm 18.3 12.6 13.0 71 3.0 NE 35 43 19 23 1012.5 1012.5 0.0
02/02:30pm 17.8 10.9 11.6 67 3.4 NE 39 46 21 25 1013.1 1013.1 0.0
02/02:00pm 17.5 9.7 11.1 66 3.5 NE 43 52 23 28 1013.4 1013.4 0.0
02/01:30pm 17.4 9.9 10.8 65 3.5 NE 41 50 22 27 1014.1 1014.1 0.0
02/01:00pm 17.3 10.5 10.7 65 3.5 NE 37 46 20 25 1014.8 1014.8 0.0
02/12:30pm 16.5 10.3 9.4 63 3.7 NE 32 41 17 22 1015.9 1015.9 0.0
02/12:00pm 15.8 9.8 8.8 63 3.6 NE 30 35 16 19 1016.9 1016.9 0.0
02/11:30am 15.5 10.6 8.3 62 3.6 NE 24 32 13 17 1017.6 1017.6 0.0
02/11:00am 15.5 11.3 7.5 59 4.0 ENE 19 26 10 14 1018.1 1018.1 0.0
02/10:30am 15.0 10.7 6.8 58 4.0 ENE 19 22 10 12 1018.2 1018.2 0.0
02/10:00am 13.9 11.2 5.8 58 3.8 NW 9 15 5 8 1018.4 1018.4 0.0
02/09:30am 13.4 11.2 5.1 57 3.9 NW 6 9 3 5 1018.6 1018.6 0.0
02/09:00am 12.7 10.5 5.1 60 3.5 NW 6 7 3 4 1018.7 1018.7 0.0
02/08:30am 11.6 8.8 5.0 64 3.0 NW 9 15 5 8 1019.0 1019.0 0.0
02/08:00am 11.1 8.6 4.8 65 2.8 NW 7 13 4 7 1018.7 1018.7 0.0
02/07:30am 10.8 7.9 4.9 67 2.7 NW 9 13 5 7 1018.5 1018.5 0.0
02/07:00am 10.5 7.7 5.1 69 2.4 WNW 9 11 5 6 1018.3 1018.3 0.0
02/06:30am 9.9 6.7 5.1 72 2.2 WNW 11 13 6 7 1018.4 1018.4 0.0
02/06:00am 9.9 7.1 5.3 73 2.1 WNW 9 13 5 7 1018.1 1018.1 0.0
02/05:30am 9.6 6.7 4.4 70 2.3 WNW 9 11 5 6 1018.3 1018.3 0.0
02/05:00am 11.4 7.0 4.8 64 3.0 SW 17 22 9 12 1018.0 1018.0 0.0
02/04:30am 11.6 7.0 5.5 66 2.8 SW 19 24 10 13 1017.9 1017.9 0.0
02/04:00am 11.6 6.7 5.3 65 2.9 SW 20 26 11 14 1018.0 1018.0 0.0
02/03:30am 11.9 7.1 5.8 66 2.8 SW 20 26 11 14 1017.9 1017.9 0.0
02/03:00am 11.9 7.3 5.5 65 3.0 SW 19 22 10 12 1017.7 1017.7 0.0
02/02:30am 12.1 6.9 5.5 64 3.1 SW 22 26 12 14 1017.3 1017.3 0.0
02/02:00am 12.3 7.1 5.5 63 3.2 SW 22 28 12 15 1017.5 1017.5 0.0
02/01:30am 12.8 8.1 6.2 64 3.1 SW 20 26 11 14 1017.6 1017.6 0.0
02/01:00am 12.9 8.3 6.3 64 3.1 SW 20 26 11 14 1017.5 1017.5 0.0
02/12:30am 12.9 8.3 6.3 64 3.1 SW 20 24 11 13 1017.3 1017.3 0.0
02/12:00am 12.8 7.5 6.6 66 3.0 SSW 24 30 13 16 1016.9 1016.9 0.0
 
Date/Time
EDT
Temp
°C
App
Temp
°C
Dew
Point
Rel
Hum
%
Delta-T
°C
Wind Press
QNH
hPa
Press
MSL
hPa
Rain
since 9 am
mm
Dir
 
Spd
km/h
Gust
km/h
Spd
kts
Gust
kts
01/11:30pm 12.8 6.7 6.8 67 2.9 SSW 28 33 15 18 1016.8 1016.8 0.0
01/11:00pm 12.9 7.2 6.9 67 2.9 SSW 26 32 14 17 1017.1 1017.1 0.0
01/10:30pm 13.2 7.0 7.9 70 2.6 SSW 30 35 16 19 1017.0 1017.0 0.0
01/10:00pm 13.2 6.4 7.6 69 2.7 SSW 33 39 18 21 1016.8 1016.8 0.0
01/09:30pm 13.6 7.3 8.9 73 2.4 SSW 32 39 17 21 1016.6 1016.6 0.0
01/09:00pm 13.7 8.2 9.2 74 2.3 SSW 28 35 15 19 1016.2 1016.2 0.0
01/08:30pm 13.8 7.6 9.5 75 2.2 SSW 32 39 17 21 1015.3 1015.3 0.0
01/08:00pm 14.0 7.3 9.6 75 2.3 SSW 35 43 19 23 1014.6 1014.6 0.0

Other Formats:

Comma delimited format used in spreadsheet applications
http://www.bom.gov.au/fwo/IDT60801/IDT60801.94951.axf

JavaScript Object Notation format (JSON) in row-major order
http://www.bom.gov.au/fwo/IDT60801/IDT60801.94951.json